Time,TemperatureF,DewpointF,PressureIn,WindDirection,WindDirectionDegrees,WindSpeedMPH,WindSpeedGustMPH,Humidity,HourlyPrecipIn,Conditions,Clouds,dailyrainin,SoftwareType,DateUTC
2013-07-11 01:32:00,57.0,-99.9,-100.00,East,90,5.0,8.0,-999,0.00,,,-99.99,,2013-07-11 07:32:00,
2013-07-11 02:34:00,57.0,-99.9,-100.00,East,90,5.0,8.0,-999,0.00,,,-99.99,,2013-07-11 08:34:00,
2013-07-11 04:33:00,56.0,-99.9,-100.00,East,92,4.0,7.0,-999,0.00,,,-99.99,,2013-07-11 10:33:00,
2013-07-11 06:00:00,60.0,-99.9,-100.00,SE,132,2.0,6.0,-999,0.00,,,-99.99,,2013-07-11 12:00:00,
2013-07-11 06:33:00,60.0,-99.9,-100.00,SE,132,2.0,6.0,-999,0.00,,,-99.99,,2013-07-11 12:33:00,
2013-07-11 06:43:00,60.0,-99.9,-100.00,SE,132,2.0,6.0,-999,0.00,,,-99.99,,2013-07-11 12:43:00,
2013-07-11 06:58:00,60.0,-99.9,-100.00,SE,132,2.0,6.0,-999,0.00,,,-99.99,,2013-07-11 12:58:00,
2013-07-11 07:00:00,61.0,-99.9,-100.00,East,98,3.0,7.0,-999,0.00,,,-99.99,,2013-07-11 13:00:00,
2013-07-11 07:47:00,61.0,-99.9,-100.00,East,98,3.0,7.0,-999,0.00,,,-99.99,,2013-07-11 13:47:00,
2013-07-11 08:00:00,61.0,-99.9,-100.00,East,99,4.0,14.0,-999,0.00,,,-99.99,,2013-07-11 14:00:00,
2013-07-11 08:36:00,61.0,-99.9,-100.00,East,99,4.0,14.0,-999,0.00,,,-99.99,,2013-07-11 14:36:00,
2013-07-11 08:47:00,61.0,-99.9,-100.00,East,99,4.0,14.0,-999,0.00,,,-99.99,,2013-07-11 14:47:00,
2013-07-11 08:55:00,61.0,-99.9,-100.00,East,99,4.0,14.0,-999,0.00,,,-99.99,,2013-07-11 14:55:00,
2013-07-11 09:00:00,64.0,-99.9,-100.00,East,90,3.0,10.0,-999,0.00,,,-99.99,,2013-07-11 15:00:00,
2013-07-11 09:38:00,64.0,-99.9,-100.00,East,90,3.0,10.0,-999,0.00,,,-99.99,,2013-07-11 15:38:00,
2013-07-11 09:49:00,64.0,-99.9,-100.00,East,90,3.0,10.0,-999,0.00,,,-99.99,,2013-07-11 15:49:00,
2013-07-11 10:00:00,66.0,-99.9,-100.00,ESE,113,2.0,5.0,-999,0.00,,,-99.99,,2013-07-11 16:00:00,
2013-07-11 10:36:00,66.0,-99.9,-100.00,ESE,113,2.0,5.0,-999,0.00,,,-99.99,,2013-07-11 16:36:00,
2013-07-11 10:50:00,66.0,-99.9,-100.00,ESE,113,2.0,5.0,-999,0.00,,,-99.99,,2013-07-11 16:50:00,
2013-07-11 10:56:00,66.0,-99.9,-100.00,ESE,113,2.0,5.0,-999,0.00,,,-99.99,,2013-07-11 16:56:00,
2013-07-11 11:00:00,67.0,-99.9,-100.00,WSW,249,3.0,13.0,-999,0.00,,,-99.99,,2013-07-11 17:00:00,
2013-07-11 11:57:00,67.0,-99.9,-100.00,WSW,249,3.0,13.0,-999,0.00,,,-99.99,,2013-07-11 17:57:00,
2013-07-11 12:00:00,71.0,-99.9,-100.00,NW,307,3.0,12.0,-999,0.00,,,-99.99,,2013-07-11 18:00:00,
2013-07-11 12:37:00,71.0,-99.9,-100.00,NW,307,3.0,12.0,-999,0.00,,,-99.99,,2013-07-11 18:37:00,
2013-07-11 12:50:00,71.0,-99.9,-100.00,NW,307,3.0,12.0,-999,0.00,,,-99.99,,2013-07-11 18:50:00,
2013-07-11 12:57:00,71.0,-99.9,-100.00,NW,307,3.0,12.0,-999,0.00,,,-99.99,,2013-07-11 18:57:00,
2013-07-11 13:00:00,72.0,-99.9,-100.00,WNW,293,5.0,13.0,-999,0.00,,,-99.99,,2013-07-11 19:00:00,
2013-07-11 13:40:00,72.0,-99.9,-100.00,WNW,293,5.0,13.0,-999,0.00,,,-99.99,,2013-07-11 19:40:00,
2013-07-11 13:48:00,72.0,-99.9,-100.00,WNW,293,5.0,13.0,-999,0.00,,,-99.99,,2013-07-11 19:48:00,
2013-07-11 13:59:00,72.0,-99.9,-100.00,WNW,293,5.0,13.0,-999,0.00,,,-99.99,,2013-07-11 19:59:00,
2013-07-11 14:00:00,75.0,-99.9,-100.00,WNW,287,9.0,20.0,-999,0.00,,,-99.99,,2013-07-11 20:00:00,
2013-07-11 14:40:00,75.0,-99.9,-100.00,WNW,287,9.0,20.0,-999,0.00,,,-99.99,,2013-07-11 20:40:00,
2013-07-11 14:51:00,75.0,-99.9,-100.00,WNW,287,9.0,20.0,-999,0.00,,,-99.99,,2013-07-11 20:51:00,
2013-07-11 14:57:00,75.0,-99.9,-100.00,WNW,287,9.0,20.0,-999,0.00,,,-99.99,,2013-07-11 20:57:00,
2013-07-11 15:00:00,73.0,-99.9,-100.00,West,276,5.0,19.0,-999,0.00,,,-99.99,,2013-07-11 21:00:00,
2013-07-11 16:00:00,71.0,-99.9,-100.00,WNW,282,8.0,25.0,-999,0.00,,,-99.99,,2013-07-11 22:00:00,
2013-07-11 16:36:00,71.0,-99.9,-100.00,WNW,282,8.0,25.0,-999,0.00,,,-99.99,,2013-07-11 22:36:00,
2013-07-11 16:50:00,71.0,-99.9,-100.00,WNW,282,8.0,25.0,-999,0.00,,,-99.99,,2013-07-11 22:50:00,
2013-07-11 17:00:00,68.0,-99.9,-100.00,WNW,284,5.0,15.0,-999,0.00,,,-99.99,,2013-07-11 23:00:00,
2013-07-11 17:38:00,68.0,-99.9,-100.00,WNW,284,5.0,15.0,-999,0.00,,,-99.99,,2013-07-11 23:38:00,
2013-07-11 17:49:00,68.0,-99.9,-100.00,WNW,284,5.0,15.0,-999,0.00,,,-99.99,,2013-07-11 23:49:00,
2013-07-11 18:00:00,65.0,-99.9,-100.00,WNW,287,11.0,34.0,-999,0.00,,,-99.99,,2013-07-12 00:00:00,
2013-07-11 18:38:00,65.0,-99.9,-100.00,WNW,287,11.0,34.0,-999,0.00,,,-99.99,,2013-07-12 00:38:00,
2013-07-11 18:47:00,65.0,-99.9,-100.00,WNW,287,11.0,34.0,-999,0.00,,,-99.99,,2013-07-12 00:47:00,
2013-07-11 18:59:00,65.0,-99.9,-100.00,WNW,287,11.0,34.0,-999,0.00,,,-99.99,,2013-07-12 00:59:00,
2013-07-11 19:00:00,57.0,-99.9,-100.00,WNW,290,8.0,20.0,-999,0.01,,,-99.99,,2013-07-12 01:00:00,
2013-07-11 19:39:00,57.0,-99.9,-100.00,WNW,290,8.0,20.0,-999,0.01,,,-99.99,,2013-07-12 01:39:00,
2013-07-11 19:49:00,57.0,-99.9,-100.00,WNW,290,8.0,20.0,-999,0.01,,,-99.99,,2013-07-12 01:49:00,
2013-07-11 19:57:00,57.0,-99.9,-100.00,WNW,290,8.0,20.0,-999,0.01,,,-99.99,,2013-07-12 01:57:00,
2013-07-11 20:46:00,56.0,-99.9,-100.00,SSW,200,2.0,7.0,-999,0.00,,,-99.99,,2013-07-12 02:46:00,
2013-07-11 21:00:00,57.0,-99.9,-100.00,SSW,199,2.0,8.0,-999,0.00,,,-99.99,,2013-07-12 03:00:00,
2013-07-11 21:39:00,57.0,-99.9,-100.00,SSW,199,2.0,8.0,-999,0.00,,,-99.99,,2013-07-12 03:39:00,
2013-07-11 21:47:00,57.0,-99.9,-100.00,SSW,199,2.0,8.0,-999,0.00,,,-99.99,,2013-07-12 03:47:00,
2013-07-11 21:58:00,57.0,-99.9,-100.00,SSW,199,2.0,8.0,-999,0.00,,,-99.99,,2013-07-12 03:58:00,
2013-07-11 22:00:00,56.0,-99.9,-100.00,WSW,243,1.0,6.0,-999,0.00,,,-99.99,,2013-07-12 04:00:00,
2013-07-11 22:32:00,56.0,-99.9,-100.00,WSW,243,1.0,6.0,-999,0.00,,,-99.99,,2013-07-12 04:32:00,
2013-07-11 22:43:00,56.0,-99.9,-100.00,WSW,243,1.0,6.0,-999,0.00,,,-99.99,,2013-07-12 04:43:00,
2013-07-11 22:53:00,56.0,-99.9,-100.00,WSW,243,1.0,6.0,-999,0.00,,,-99.99,,2013-07-12 04:53:00,
2013-07-11 23:00:00,55.0,-99.9,-100.00,West,263,2.0,7.0,-999,0.00,,,-99.99,,2013-07-12 05:00:00,
2013-07-11 23:32:00,55.0,-99.9,-100.00,West,263,2.0,7.0,-999,0.00,,,-99.99,,2013-07-12 05:32:00,
2013-07-11 23:43:00,55.0,-99.9,-100.00,West,263,2.0,7.0,-999,0.00,,,-99.99,,2013-07-12 05:43:00,
2013-07-11 23:53:00,55.0,-99.9,-100.00,West,263,2.0,7.0,-999,0.00,,,-99.99,,2013-07-12 05:53:00,